E.r. Borneo — A8SZ4 — position and weather

sailwx.info

Track history (hours):
 
Tides and Currents Weather Stations Pressure Air Temp Water Temp Dewpoint Dewpoint Depression Visibility Wind Speed Wind Dir Waves Ship Positions

E.r. Borneo

Last reported at 2016-Nov-01 23:33 UTC. Time now 2016-Dec-03 21:48 UTC.
Position N 51°03' E 002°19'.
Warning: this ship's position is 31 days out of date.

Length 292 m; draft 10.8 m.

Type: Cargo ship. MMSI: 636091797.

Date/timePositionNaut miles runAvg speedWind from/ knotsBaromVisibWave heightAir tempDewpointWater temp
2016-Nov-01 23:33N 51°03' E 002°19'0 0.0
2016-Nov-01 20:33N 51°03' E 002°19'0 0.0
2016-Nov-01 19:33N 51°03' E 002°19'0 0.0
2016-Nov-01 03:33N 51°03' E 002°19'0 0.0
2016-Nov-01 02:33N 51°03' E 002°19'0 0.0
2016-Nov-01 00:33N 51°03' E 002°19'0 0.0
2016-Oct-31 23:30N 51°03' E 002°19'0 0.0
2016-Oct-31 22:33N 51°03' E 002°19'0 0.0
2016-Oct-31 20:33N 51°03' E 002°19'0 0.0
2016-Oct-31 19:33N 51°03' E 002°19'0 0.0
2016-Oct-31 18:33N 51°03' E 002°19'0 0.0
2016-Oct-31 13:33N 51°03' E 002°19'0 0.0
2016-Oct-31 12:33N 51°03' E 002°19'0 0.0
2016-Oct-31 10:33N 51°03' E 002°19'0 0.0
2016-Oct-31 09:33N 51°03' E 002°19'0 0.0
2016-Oct-31 08:33N 51°03' E 002°19'0 0.0
2016-Oct-31 07:33N 51°03' E 002°19'0 0.0
2016-Oct-31 03:33N 51°03' E 002°19'0 0.0
2016-Oct-30 20:33N 51°03' E 002°19'0 0.0
2016-Oct-30 13:33N 51°03' E 002°19'0 0.0
2016-Oct-30 12:33N 51°03' E 002°19'0 0.0
2016-Oct-30 11:33N 51°03' E 002°19'0 0.0
2016-Oct-30 08:33N 51°03' E 002°19'0 0.0
2016-Oct-30 07:27N 51°03' E 002°19'0 0.0
2016-Oct-30 02:33N 51°03' E 002°19'0 0.0
2016-Oct-30 00:33N 51°03' E 002°19'0 0.0
2016-Oct-29 23:33N 51°03' E 002°19'0 0.0
2016-Oct-29 22:33N 51°03' E 002°19'0 0.0
2016-Oct-29 21:33N 51°03' E 002°19'0 0.0
2016-Oct-29 20:33N 51°03' E 002°19'0 0.0
2016-Oct-29 19:33N 51°03' E 002°19'0 0.0
2016-Oct-29 18:33N 51°03' E 002°19'0 0.0
2016-Oct-29 16:33N 51°03' E 002°19'0 0.0
2016-Oct-29 14:33N 51°03' E 002°19'0 0.0
2016-Oct-29 11:33N 51°03' E 002°19'0 0.0
2016-Oct-29 09:33N 51°03' E 002°19'0 0.0
2016-Oct-29 06:33N 51°03' E 002°19'0 0.0
2016-Oct-29 04:33N 51°03' E 002°19'0 0.0
2016-Oct-29 02:33N 51°03' E 002°19'0 0.0
2016-Oct-28 23:33N 51°03' E 002°19'0 0.0
2016-Oct-28 21:33N 51°03' E 002°19'0 0.0
2016-Oct-28 19:33N 51°03' E 002°19'0 0.0
2016-Oct-28 16:33N 51°03' E 002°19'0 0.0
2016-Oct-28 15:33N 51°03' E 002°19'0 0.0
2016-Oct-28 14:34N 51°03' E 002°19'18 3.7
2016-Oct-28 09:34N 51°03' E 001°50'0 0.1
2016-Oct-28 08:33N 51°04' E 001°50'0 0.4
2016-Oct-28 07:33N 51°03' E 001°49'0 0.1
2016-Oct-28 00:33N 51°04' E 001°50'0 0.0
2016-Oct-27 23:33N 51°04' E 001°50'0 0.0
2016-Oct-27 21:33N 51°04' E 001°50'0 0.1
2016-Oct-27 17:33N 51°03' E 001°49'0 0.0
2016-Oct-27 15:33N 51°03' E 001°49'0 0.1
2016-Oct-27 11:33N 51°04' E 001°50'0 0.0
2016-Oct-27 09:33N 51°04' E 001°50'0 0.1
2016-Oct-27 05:33N 51°03' E 001°49'0 0.0
2016-Oct-27 04:33N 51°03' E 001°49'0 0.0
2016-Oct-27 03:33N 51°03' E 001°49'0 0.1
2016-Oct-27 00:30N 51°04' E 001°50'0 0.0
2016-Oct-26 21:33N 51°03' E 001°50'10 2.1
2016-Oct-26 16:33N 50°58' E 001°36'10 9.5
2016-Oct-26 15:33N 50°50' E 001°28'6010.1
2016-Oct-26 09:33N 50°18' E 000°07'1511.4
2016-Oct-26 08:14N 50°14' W 000°16'1210.3
2016-Oct-26 07:04N 50°11' W 000°34'3513.9
2016-Oct-26 04:33N 50°02' W 001°26'1414.3
2016-Oct-26 03:34N 49°59' W 001°48'5212.3
2016-Oct-25 23:21N 49°44' W 003°05'2011.4
2016-Oct-25 21:33N 49°34' W 003°32'1111.3
2016-Oct-25 20:33N 49°28' W 003°47'3511.1
2016-Oct-25 17:26N 49°10' W 004°33'1111.4
2016-Oct-25 16:26N 49°04' W 004°48'1011.7
2016-Oct-25 15:32N 48°59' W 005°02'2412.1
2016-Oct-25 13:33N 48°46' W 005°33'1812.3
2016-Oct-25 12:08N 48°31' W 005°46'8112.2
2016-Oct-25 05:30N 47°10' W 005°45'216 9.8
2016-Oct-24 07:29N 43°34' W 005°41'0 0.0
2016-Oct-24 06:23N 43°34' W 005°41'0 0.0
2016-Oct-24 05:29N 43°34' W 005°41'0 0.0
2016-Oct-24 04:17N 43°34' W 005°41'0 0.0
2016-Oct-23 10:23N 43°34' W 005°41'0 0.0
2016-Oct-23 09:11N 43°34' W 005°41'0 0.0
2016-Oct-23 03:17N 43°34' W 005°41'0 0.0
2016-Oct-23 02:05N 43°34' W 005°41'  
Track history (hours):
 
Tides and Currents Weather Stations Pressure Air Temp Water Temp Dewpoint Dewpoint Depression Visibility Wind Speed Wind Dir Waves Ship Positions

E.r. Borneo

Last reported at 2016-Nov-01 23:33 UTC. Time now 2016-Dec-03 21:48 UTC.
Position N 51°03' E 002°19'.
Warning: this ship's position is 31 days out of date.

Length 292 m; draft 10.8 m.

Type: Cargo ship. MMSI: 636091797.

Date/timePositionNaut miles runAvg speedWind from/ knotsBaromVisibWave heightAir tempDewpointWater temp
2016-Nov-01 23:33N 51°03' E 002°19'0 0.0
2016-Nov-01 20:33N 51°03' E 002°19'0 0.0
2016-Nov-01 19:33N 51°03' E 002°19'0 0.0
2016-Nov-01 03:33N 51°03' E 002°19'0 0.0
2016-Nov-01 02:33N 51°03' E 002°19'0 0.0
2016-Nov-01 00:33N 51°03' E 002°19'0 0.0
2016-Oct-31 23:30N 51°03' E 002°19'0 0.0
2016-Oct-31 22:33N 51°03' E 002°19'0 0.0
2016-Oct-31 20:33N 51°03' E 002°19'0 0.0
2016-Oct-31 19:33N 51°03' E 002°19'0 0.0
2016-Oct-31 18:33N 51°03' E 002°19'0 0.0
2016-Oct-31 13:33N 51°03' E 002°19'0 0.0
2016-Oct-31 12:33N 51°03' E 002°19'0 0.0
2016-Oct-31 10:33N 51°03' E 002°19'0 0.0
2016-Oct-31 09:33N 51°03' E 002°19'0 0.0
2016-Oct-31 08:33N 51°03' E 002°19'0 0.0
2016-Oct-31 07:33N 51°03' E 002°19'0 0.0
2016-Oct-31 03:33N 51°03' E 002°19'0 0.0
2016-Oct-30 20:33N 51°03' E 002°19'0 0.0
2016-Oct-30 13:33N 51°03' E 002°19'0 0.0
2016-Oct-30 12:33N 51°03' E 002°19'0 0.0
2016-Oct-30 11:33N 51°03' E 002°19'0 0.0
2016-Oct-30 08:33N 51°03' E 002°19'0 0.0
2016-Oct-30 07:27N 51°03' E 002°19'0 0.0
2016-Oct-30 02:33N 51°03' E 002°19'0 0.0
2016-Oct-30 00:33N 51°03' E 002°19'0 0.0
2016-Oct-29 23:33N 51°03' E 002°19'0 0.0
2016-Oct-29 22:33N 51°03' E 002°19'0 0.0
2016-Oct-29 21:33N 51°03' E 002°19'0 0.0
2016-Oct-29 20:33N 51°03' E 002°19'0 0.0
2016-Oct-29 19:33N 51°03' E 002°19'0 0.0
2016-Oct-29 18:33N 51°03' E 002°19'0 0.0
2016-Oct-29 16:33N 51°03' E 002°19'0 0.0
2016-Oct-29 14:33N 51°03' E 002°19'0 0.0
2016-Oct-29 11:33N 51°03' E 002°19'0 0.0
2016-Oct-29 09:33N 51°03' E 002°19'0 0.0
2016-Oct-29 06:33N 51°03' E 002°19'0 0.0
2016-Oct-29 04:33N 51°03' E 002°19'0 0.0
2016-Oct-29 02:33N 51°03' E 002°19'0 0.0
2016-Oct-28 23:33N 51°03' E 002°19'0 0.0
2016-Oct-28 21:33N 51°03' E 002°19'0 0.0
2016-Oct-28 19:33N 51°03' E 002°19'0 0.0
2016-Oct-28 16:33N 51°03' E 002°19'0 0.0
2016-Oct-28 15:33N 51°03' E 002°19'0 0.0
2016-Oct-28 14:34N 51°03' E 002°19'18 3.7
2016-Oct-28 09:34N 51°03' E 001°50'0 0.1
2016-Oct-28 08:33N 51°04' E 001°50'0 0.4
2016-Oct-28 07:33N 51°03' E 001°49'0 0.1
2016-Oct-28 00:33N 51°04' E 001°50'0 0.0
2016-Oct-27 23:33N 51°04' E 001°50'0 0.0
2016-Oct-27 21:33N 51°04' E 001°50'0 0.1
2016-Oct-27 17:33N 51°03' E 001°49'0 0.0
2016-Oct-27 15:33N 51°03' E 001°49'0 0.1
2016-Oct-27 11:33N 51°04' E 001°50'0 0.0
2016-Oct-27 09:33N 51°04' E 001°50'0 0.1
2016-Oct-27 05:33N 51°03' E 001°49'0 0.0
2016-Oct-27 04:33N 51°03' E 001°49'0 0.0
2016-Oct-27 03:33N 51°03' E 001°49'0 0.1
2016-Oct-27 00:30N 51°04' E 001°50'0 0.0
2016-Oct-26 21:33N 51°03' E 001°50'10 2.1
2016-Oct-26 16:33N 50°58' E 001°36'10 9.5
2016-Oct-26 15:33N 50°50' E 001°28'6010.1
2016-Oct-26 09:33N 50°18' E 000°07'1511.4
2016-Oct-26 08:14N 50°14' W 000°16'1210.3
2016-Oct-26 07:04N 50°11' W 000°34'3513.9
2016-Oct-26 04:33N 50°02' W 001°26'1414.3
2016-Oct-26 03:34N 49°59' W 001°48'5212.3
2016-Oct-25 23:21N 49°44' W 003°05'2011.4
2016-Oct-25 21:33N 49°34' W 003°32'1111.3
2016-Oct-25 20:33N 49°28' W 003°47'3511.1
2016-Oct-25 17:26N 49°10' W 004°33'1111.4
2016-Oct-25 16:26N 49°04' W 004°48'1011.7
2016-Oct-25 15:32N 48°59' W 005°02'2412.1
2016-Oct-25 13:33N 48°46' W 005°33'1812.3
2016-Oct-25 12:08N 48°31' W 005°46'8112.2
2016-Oct-25 05:30N 47°10' W 005°45'216 9.8
2016-Oct-24 07:29N 43°34' W 005°41'0 0.0
2016-Oct-24 06:23N 43°34' W 005°41'0 0.0
2016-Oct-24 05:29N 43°34' W 005°41'0 0.0
2016-Oct-24 04:17N 43°34' W 005°41'0 0.0
2016-Oct-23 10:23N 43°34' W 005°41'0 0.0
2016-Oct-23 09:11N 43°34' W 005°41'0 0.0
2016-Oct-23 03:17N 43°34' W 005°41'0 0.0
2016-Oct-23 02:05N 43°34' W 005°41'  

Dump ship's entire track history